createdAt,value
2022-12-17T00:02:28.294Z,100388.16
2022-12-17T00:05:13.514Z,100389.44
2022-12-17T00:07:58.515Z,100394.66
2022-12-17T00:10:43.260Z,100394.66
2022-12-17T00:13:39.567Z,100396.75
2022-12-17T00:16:24.913Z,100396.81
2022-12-17T00:19:10.025Z,100391.19
2022-12-17T00:21:54.806Z,100398.03
2022-12-17T00:24:41.543Z,100396.44
2022-12-17T00:27:26.345Z,100410.50
2022-12-17T00:30:11.306Z,100409.84
2022-12-17T00:32:56.600Z,100404.69
2022-12-17T00:35:41.382Z,100399.53
2022-12-17T00:38:26.789Z,100395.50
2022-12-17T00:41:12.121Z,100413.91
2022-12-17T00:43:58.615Z,100428.13
2022-12-17T00:46:43.823Z,100438.13
2022-12-17T00:49:29.515Z,100431.03
2022-12-17T00:52:14.559Z,100438.41
2022-12-17T00:54:59.384Z,100431.94
2022-12-17T00:57:44.364Z,100438.53
2022-12-17T01:00:30.441Z,100436.38
2022-12-17T01:03:28.428Z,100433.78
2022-12-17T01:06:13.853Z,100436.97
2022-12-17T01:08:59.019Z,100452.44
2022-12-17T01:11:44.567Z,100459.72
2022-12-17T01:14:29.861Z,100450.84
2022-12-17T01:17:14.783Z,100444.03
2022-12-17T01:19:59.694Z,100456.13
2022-12-17T01:22:45.094Z,100465.47
2022-12-17T01:25:29.936Z,100466.13
2022-12-17T01:28:14.810Z,100466.28
2022-12-17T01:30:59.563Z,100452.91
2022-12-17T01:33:44.450Z,100448.09
2022-12-17T01:36:29.270Z,100450.44
2022-12-17T01:39:14.134Z,100452.19
2022-12-17T01:41:59.182Z,100462.69
2022-12-17T01:45:04.719Z,100472.47
2022-12-17T01:47:57.833Z,100465.38
2022-12-17T01:50:46.295Z,100471.34
2022-12-17T01:53:31.725Z,100472.44
2022-12-17T01:56:17.251Z,100481.03
2022-12-17T01:59:02.701Z,100475.97
2022-12-17T02:01:48.393Z,100472.91
2022-12-17T02:04:33.905Z,100475.22
2022-12-17T02:07:42.243Z,100488.31
2022-12-17T02:10:48.912Z,100495.25
2022-12-17T02:13:44.649Z,100486.47
2022-12-17T02:16:35.125Z,100475.72
2022-12-17T02:19:43.830Z,100483.81
2022-12-17T02:22:47.014Z,100490.22
2022-12-17T02:25:42.070Z,100482.69
2022-12-17T02:28:27.367Z,100487.06
2022-12-17T02:31:13.841Z,100494.81
2022-12-17T02:40:03.347Z,100475.81
2022-12-17T02:42:50.211Z,100456.47
2022-12-17T02:45:36.255Z,100470.84
2022-12-17T02:48:22.585Z,100477.06
2022-12-17T02:51:07.955Z,100480.59
2022-12-17T02:53:53.903Z,100471.84
2022-12-17T02:56:40.364Z,100470.88
2022-12-17T02:59:25.319Z,100477.25
2022-12-17T03:02:10.388Z,100462.75
2022-12-17T03:04:55.496Z,100457.25
2022-12-17T03:07:40.456Z,100471.66
2022-12-17T03:10:25.924Z,100478.75
2022-12-17T03:13:10.668Z,100483.59
2022-12-17T03:15:55.539Z,100478.41
2022-12-17T03:18:40.466Z,100476.69
2022-12-17T03:21:25.895Z,100471.34
2022-12-17T03:24:10.716Z,100481.00
2022-12-17T03:26:55.844Z,100481.72
2022-12-17T03:29:40.681Z,100485.25
2022-12-17T03:32:25.567Z,100483.66
2022-12-17T03:35:10.432Z,100492.25
2022-12-17T03:37:55.677Z,100487.56
2022-12-17T03:40:40.605Z,100489.88
2022-12-17T03:43:27.565Z,100491.06
2022-12-17T03:46:13.790Z,100495.09
2022-12-17T03:48:58.956Z,100498.84
2022-12-17T03:51:43.936Z,100490.97
2022-12-17T03:54:28.877Z,100487.66
2022-12-17T03:57:16.305Z,100485.50
2022-12-17T04:00:01.606Z,100485.00
2022-12-17T04:02:47.019Z,100501.72
2022-12-17T04:05:32.022Z,100502.25
2022-12-17T04:08:16.947Z,100503.19
2022-12-17T04:11:12.892Z,100501.34
2022-12-17T04:13:57.670Z,100489.72
2022-12-17T04:16:42.605Z,100485.38
2022-12-17T04:19:27.525Z,100485.50
2022-12-17T04:22:12.493Z,100484.25
2022-12-17T04:24:57.524Z,100487.22
2022-12-17T04:27:42.365Z,100492.03
2022-12-17T04:30:28.326Z,100500.31
2022-12-17T04:33:17.679Z,100508.94
2022-12-17T04:36:02.569Z,100522.88
2022-12-17T04:38:47.518Z,100530.38
2022-12-17T04:41:32.863Z,100542.06
2022-12-17T04:44:18.263Z,100543.50
2022-12-17T04:47:03.614Z,100548.25
2022-12-17T04:49:48.616Z,100555.50
2022-12-17T04:52:33.618Z,100558.66
2022-12-17T04:55:18.571Z,100558.91
2022-12-17T04:58:03.478Z,100572.72
2022-12-17T05:00:48.294Z,100574.69
2022-12-17T05:03:35.828Z,100575.31
2022-12-17T05:06:22.220Z,100594.94
2022-12-17T05:09:07.097Z,100602.22
2022-12-17T05:11:52.482Z,100598.59
2022-12-17T05:14:37.441Z,100602.09
2022-12-17T05:17:22.609Z,100607.94
2022-12-17T05:20:07.651Z,100606.69
2022-12-17T05:22:52.760Z,100614.22
2022-12-17T05:25:37.813Z,100631.84
2022-12-17T05:28:22.940Z,100625.31
2022-12-17T05:31:14.867Z,100624.19
2022-12-17T05:34:00.612Z,100613.75
2022-12-17T05:36:45.934Z,100616.31
2022-12-17T05:39:30.850Z,100614.72
2022-12-17T05:42:15.747Z,100614.63
2022-12-17T05:45:00.747Z,100614.47
2022-12-17T05:47:45.953Z,100610.34
2022-12-17T05:50:31.312Z,100619.88
2022-12-17T05:53:21.244Z,100617.09
2022-12-17T05:56:10.846Z,100614.94
2022-12-17T05:58:56.245Z,100609.59
2022-12-17T06:01:42.664Z,100611.88
2022-12-17T06:04:28.401Z,100614.63
2022-12-17T06:07:13.654Z,100617.53
2022-12-17T06:09:58.819Z,100613.88
2022-12-17T06:12:43.689Z,100615.56
2022-12-17T06:15:29.180Z,100611.78
2022-12-17T06:18:17.106Z,100613.84
2022-12-17T06:21:02.427Z,100616.81
2022-12-17T06:23:47.336Z,100617.16
2022-12-17T06:26:32.158Z,100620.19
2022-12-17T06:29:17.162Z,100627.47
2022-12-17T06:32:02.275Z,100636.94
2022-12-17T06:34:47.140Z,100637.16
2022-12-17T06:37:32.735Z,100648.47
2022-12-17T06:40:17.731Z,100662.91
2022-12-17T06:43:12.142Z,100674.44
2022-12-17T06:45:57.108Z,100676.16
2022-12-17T06:48:42.052Z,100683.31
2022-12-17T06:51:26.845Z,100685.63
2022-12-17T06:54:11.743Z,100698.63
2022-12-17T06:56:57.983Z,100691.47
2022-12-17T06:59:43.174Z,100674.84
2022-12-17T07:02:29.810Z,100686.13
2022-12-17T07:05:15.135Z,100690.59
2022-12-17T07:08:00.587Z,100701.16
2022-12-17T07:10:45.675Z,100711.97
2022-12-17T07:13:30.512Z,100708.09
2022-12-17T07:16:15.768Z,100708.44
2022-12-17T07:19:01.091Z,100707.78
2022-12-17T07:21:46.140Z,100704.97
2022-12-17T07:24:31.020Z,100713.16
2022-12-17T07:27:16.521Z,100716.09
2022-12-17T07:30:01.353Z,100710.66
2022-12-17T07:32:46.283Z,100720.66
2022-12-17T07:35:31.241Z,100711.78
2022-12-17T07:38:21.338Z,100721.03
2022-12-17T07:41:06.378Z,100722.31
2022-12-17T07:43:53.354Z,100725.06
2022-12-17T07:46:39.022Z,100727.50
2022-12-17T07:49:26.091Z,100735.53
2022-12-17T07:52:11.777Z,100744.75
2022-12-17T07:54:56.609Z,100760.56
2022-12-17T07:57:41.490Z,100750.94
2022-12-17T08:00:27.334Z,100755.19
2022-12-17T08:03:19.580Z,100755.84
2022-12-17T08:06:05.331Z,100745.16
2022-12-17T08:08:50.178Z,100756.19
2022-12-17T08:11:35.065Z,100757.84
2022-12-17T08:14:19.939Z,100753.88
2022-12-17T08:17:04.991Z,100752.03
2022-12-17T08:19:50.209Z,100751.31
2022-12-17T08:22:35.543Z,100755.94
2022-12-17T08:25:20.437Z,100772.88
2022-12-17T08:28:11.092Z,100769.53
2022-12-17T08:31:06.896Z,100776.81
2022-12-17T08:33:52.777Z,100783.53
2022-12-17T08:36:38.205Z,100776.38
2022-12-17T08:39:23.211Z,100784.97
2022-12-17T08:42:08.170Z,100785.31
2022-12-17T08:44:53.106Z,100782.16
2022-12-17T08:47:37.973Z,100782.91
2022-12-17T08:50:24.443Z,100784.63
2022-12-17T08:53:17.120Z,100796.28
2022-12-17T08:56:01.954Z,100794.00
2022-12-17T08:58:47.105Z,100805.06
2022-12-17T09:01:32.009Z,100799.72
2022-12-17T09:04:17.116Z,100806.94
2022-12-17T09:07:02.230Z,100813.78
2022-12-17T09:09:46.960Z,100824.50
2022-12-17T09:12:31.914Z,100821.09
2022-12-17T09:15:16.798Z,100823.50
2022-12-17T09:18:03.631Z,100815.84
2022-12-17T09:20:48.567Z,100823.34
2022-12-17T09:23:35.697Z,100829.00
2022-12-17T09:26:21.484Z,100828.31
2022-12-17T09:29:06.591Z,100832.75
2022-12-17T09:31:51.894Z,100831.28
2022-12-17T09:34:37.899Z,100844.50
2022-12-17T09:37:24.807Z,100852.13
2022-12-17T09:40:09.718Z,100850.88
2022-12-17T09:43:24.314Z,100852.16
2022-12-17T09:46:17.758Z,100843.06
2022-12-17T09:49:26.325Z,100845.53
2022-12-17T09:52:11.198Z,100853.34
2022-12-17T09:55:04.731Z,100849.47
2022-12-17T09:57:54.183Z,100843.44
2022-12-17T10:00:44.803Z,100853.34
2022-12-17T10:03:41.876Z,100853.97
2022-12-17T10:06:40.687Z,100848.25
2022-12-17T10:09:31.661Z,100855.53
2022-12-17T10:12:31.039Z,100842.84
2022-12-17T10:15:16.016Z,100853.94
2022-12-17T10:18:00.799Z,100859.38
2022-12-17T10:20:54.348Z,100855.38
2022-12-17T10:23:47.959Z,100862.47
2022-12-17T10:26:42.032Z,100880.13
2022-12-17T10:29:36.618Z,100875.34
2022-12-17T10:32:39.262Z,100889.09
2022-12-17T10:35:41.885Z,100883.53
2022-12-17T10:38:45.061Z,100898.97
2022-12-17T10:41:44.363Z,100892.00
2022-12-17T10:44:48.845Z,100894.00
2022-12-17T10:47:37.187Z,100897.72
2022-12-17T10:50:33.251Z,100898.16
2022-12-17T10:53:19.712Z,100896.72
2022-12-17T10:56:14.707Z,100896.25
2022-12-17T10:59:05.110Z,100898.69
2022-12-17T11:01:51.071Z,100895.25
2022-12-17T11:04:51.401Z,100901.91
2022-12-17T11:07:42.806Z,100919.00
2022-12-17T11:10:47.550Z,100916.63
2022-12-17T11:13:40.617Z,100914.47
2022-12-17T11:16:34.850Z,100907.66
2022-12-17T11:19:32.686Z,100899.75
2022-12-17T11:22:26.307Z,100906.69
2022-12-17T11:25:21.944Z,100907.66
2022-12-17T11:28:12.585Z,100903.34
2022-12-17T11:31:12.565Z,100899.97
2022-12-17T11:34:26.172Z,100899.69
2022-12-17T11:37:27.549Z,100907.03
2022-12-17T11:40:18.438Z,100906.09
2022-12-17T11:43:19.744Z,100913.31
2022-12-17T11:46:14.490Z,100919.09
2022-12-17T11:49:18.035Z,100924.38
2022-12-17T11:52:17.314Z,100933.78
2022-12-17T11:55:17.914Z,100934.56
2022-12-17T11:58:21.223Z,100943.44
2022-12-17T12:01:46.685Z,100937.38
2022-12-17T12:04:56.785Z,100941.81
2022-12-17T12:08:05.399Z,100937.94
2022-12-17T12:11:01.333Z,100937.34
2022-12-17T12:14:03.105Z,100943.41
2022-12-17T12:17:00.120Z,100950.94
2022-12-17T12:19:48.895Z,100955.28
2022-12-17T12:22:47.486Z,100959.91
2022-12-17T12:26:10.698Z,100954.06
2022-12-17T12:29:03.573Z,100956.13
2022-12-17T12:31:58.275Z,100959.47
2022-12-17T12:34:49.530Z,100952.13
2022-12-17T12:37:37.493Z,100964.78
2022-12-17T12:40:51.294Z,100973.50
2022-12-17T12:43:42.431Z,100981.81
2022-12-17T12:47:08.909Z,100985.69
2022-12-17T12:50:15.112Z,100991.91
2022-12-17T12:53:00.006Z,100994.28
2022-12-17T12:55:56.515Z,100989.06
2022-12-17T12:58:47.617Z,100995.28
2022-12-17T13:01:33.625Z,100991.41
2022-12-17T13:04:21.426Z,100994.69
2022-12-17T13:06:49.642Z,100993.25
2022-12-17T13:09:16.137Z,100998.91
2022-12-17T13:11:49.705Z,100997.25
2022-12-17T13:14:24.250Z,101003.56
2022-12-17T13:16:55.638Z,100996.31
2022-12-17T13:19:36.402Z,100994.19
2022-12-17T13:22:20.050Z,101003.19
2022-12-17T13:24:53.606Z,101006.31
2022-12-17T13:27:46.904Z,101006.81
2022-12-17T13:30:22.252Z,101011.63
2022-12-17T13:33:02.426Z,101008.59
2022-12-17T13:35:46.958Z,100996.06
2022-12-17T13:38:13.457Z,101008.13
2022-12-17T13:41:09.590Z,101013.94
2022-12-17T13:43:48.534Z,101023.44
2022-12-17T13:46:47.481Z,101019.06
2022-12-17T13:49:19.903Z,101026.34
2022-12-17T13:51:47.043Z,101034.31
2022-12-17T13:54:19.414Z,101026.25
2022-12-17T13:56:46.390Z,101025.16
2022-12-17T13:59:24.450Z,101027.91
2022-12-17T14:01:53.880Z,101026.06
2022-12-17T14:04:26.212Z,101034.75
2022-12-17T14:06:59.177Z,101040.53
2022-12-17T14:09:33.709Z,101046.09
2022-12-17T14:12:22.392Z,101040.91
2022-12-17T14:15:03.171Z,101059.06
2022-12-17T14:17:44.583Z,101061.50
2022-12-17T14:20:15.257Z,101071.38
2022-12-17T14:22:51.332Z,101060.72
2022-12-17T14:25:21.961Z,101067.19
2022-12-17T14:28:06.643Z,101080.81
2022-12-17T14:30:33.151Z,101085.56
2022-12-17T14:33:01.080Z,101079.13
2022-12-17T14:35:35.046Z,101088.72
2022-12-17T14:38:01.957Z,101090.31
2022-12-17T14:40:28.617Z,101098.16
2022-12-17T14:42:59.750Z,101095.41
2022-12-17T14:45:28.543Z,101095.34
2022-12-17T14:48:00.353Z,101101.31
2022-12-17T14:50:31.695Z,101101.00
2022-12-17T14:52:59.332Z,101108.69
2022-12-17T14:55:31.393Z,101108.31
2022-12-17T14:58:13.171Z,101106.44
2022-12-17T15:00:43.310Z,101112.44
2022-12-17T15:03:15.791Z,101113.66
2022-12-17T15:05:42.451Z,101120.03
2022-12-17T15:08:11.769Z,101120.13
2022-12-17T15:10:38.294Z,101116.25
2022-12-17T15:13:04.784Z,101120.63
2022-12-17T15:15:31.246Z,101122.16
2022-12-17T15:17:57.690Z,101126.00
2022-12-17T15:20:24.292Z,101123.84
2022-12-17T15:22:50.861Z,101130.06
2022-12-17T15:25:19.404Z,101129.28
2022-12-17T15:27:46.728Z,101137.75
2022-12-17T15:30:15.270Z,101134.53
2022-12-17T15:32:42.190Z,101139.44
2022-12-17T15:35:14.308Z,101145.66
2022-12-17T15:37:43.669Z,101143.53
2022-12-17T15:40:12.255Z,101145.34
2022-12-17T15:43:02.936Z,101152.56
2022-12-17T15:45:32.489Z,101150.66
2022-12-17T15:47:59.016Z,101158.69
2022-12-17T15:50:25.511Z,101157.06
2022-12-17T15:52:52.182Z,101169.19
2022-12-17T15:55:18.659Z,101172.34
2022-12-17T15:57:45.246Z,101170.63
2022-12-17T16:00:12.685Z,101181.91
2022-12-17T16:02:39.532Z,101176.59
2022-12-17T16:05:06.544Z,101184.84
2022-12-17T16:07:33.138Z,101188.31
2022-12-17T16:10:04.879Z,101177.22
2022-12-17T16:12:32.416Z,101179.56
2022-12-17T16:14:59.061Z,101184.78
2022-12-17T16:17:25.642Z,101182.94
2022-12-17T16:19:52.162Z,101183.91
2022-12-17T16:22:18.794Z,101191.41
2022-12-17T16:24:45.545Z,101195.47
2022-12-17T16:27:12.551Z,101203.81
2022-12-17T16:29:39.325Z,101195.13
2022-12-17T16:32:05.886Z,101195.59
2022-12-17T16:34:32.423Z,101197.47
2022-12-17T16:37:00.533Z,101198.00
2022-12-17T16:39:27.684Z,101196.84
2022-12-17T16:41:54.220Z,101201.94
2022-12-17T16:44:20.708Z,101197.81
2022-12-17T16:46:47.327Z,101208.59
2022-12-17T16:49:18.148Z,101217.91
2022-12-17T16:51:46.413Z,101209.84
2022-12-17T16:54:15.183Z,101219.91
2022-12-17T16:56:42.538Z,101222.94
2022-12-17T16:59:10.798Z,101225.66
2022-12-17T17:01:39.940Z,101233.41
2022-12-17T17:04:08.129Z,101229.25
2022-12-17T17:06:42.583Z,101236.16
2022-12-17T17:09:09.396Z,101239.38
2022-12-17T17:11:35.894Z,101250.75
2022-12-17T17:14:03.664Z,101246.94
2022-12-17T17:16:30.609Z,101259.44
2022-12-17T17:18:57.608Z,101252.91
2022-12-17T17:21:32.789Z,101256.97
2022-12-17T17:24:02.047Z,101261.03
2022-12-17T17:26:30.678Z,101269.41
2022-12-17T17:28:57.406Z,101268.47
2022-12-17T17:31:40.237Z,101267.13
2022-12-17T17:34:13.903Z,101267.75
2022-12-17T17:36:41.390Z,101263.44
2022-12-17T17:39:08.218Z,101272.00
2022-12-17T17:41:35.746Z,101274.16
2022-12-17T17:44:05.270Z,101284.06
2022-12-17T17:46:32.970Z,101289.41
2022-12-17T17:49:01.473Z,101289.06
2022-12-17T17:52:07.763Z,101284.63
2022-12-17T17:54:20.291Z,101278.84
2022-12-17T17:56:46.759Z,101284.00
2022-12-17T17:59:19.534Z,101287.13
2022-12-17T18:01:50.348Z,101290.28
2022-12-17T18:04:21.553Z,101280.41
2022-12-17T18:07:16.507Z,101292.03
2022-12-17T18:09:41.564Z,101298.13
2022-12-17T18:12:26.732Z,101300.03
2022-12-17T18:17:40.038Z,101305.72
2022-12-17T18:20:07.105Z,101311.06
2022-12-17T18:22:33.606Z,101315.75
2022-12-17T18:25:00.118Z,101319.91
2022-12-17T18:27:26.756Z,101322.09
2022-12-17T18:29:53.249Z,101332.09
2022-12-17T18:32:19.794Z,101332.50
2022-12-17T18:34:46.432Z,101340.06
2022-12-17T18:37:13.002Z,101334.06
2022-12-17T18:39:39.504Z,101336.88
2022-12-17T18:42:25.011Z,101342.31
2022-12-17T18:44:51.469Z,101342.44
2022-12-17T18:47:18.945Z,101352.13
2022-12-17T18:49:45.603Z,101363.06
2022-12-17T18:52:16.737Z,101354.44
2022-12-17T18:54:44.237Z,101359.91
2022-12-17T18:57:11.011Z,101358.66
2022-12-17T18:59:37.567Z,101357.41
2022-12-17T19:02:04.607Z,101356.81
2022-12-17T19:04:33.167Z,101369.44
2022-12-17T19:06:59.835Z,101361.50
2022-12-17T19:09:29.221Z,101370.53
2022-12-17T19:11:56.722Z,101369.28
2022-12-17T19:14:25.214Z,101370.53
2022-12-17T19:16:54.004Z,101374.47
2022-12-17T19:19:21.839Z,101378.34
2022-12-17T19:21:48.837Z,101379.81
2022-12-17T19:24:17.943Z,101382.25
2022-12-17T19:26:45.080Z,101384.78
2022-12-17T19:29:16.128Z,101384.00
2022-12-17T19:31:43.776Z,101377.38
2022-12-17T19:34:13.559Z,101385.00
2022-12-17T19:36:40.962Z,101381.00
2022-12-17T19:39:10.996Z,101388.28
2022-12-17T19:41:37.661Z,101388.63
2022-12-17T19:44:07.030Z,101391.13
2022-12-17T19:46:35.410Z,101396.22
2022-12-17T19:49:02.515Z,101410.53
2022-12-17T19:51:30.912Z,101409.38
2022-12-17T19:54:01.945Z,101416.19
2022-12-17T19:56:34.627Z,101412.59
2022-12-17T19:59:03.758Z,101421.81
2022-12-17T20:01:39.341Z,101420.91
2022-12-17T20:04:06.014Z,101417.19
2022-12-17T20:06:35.261Z,101420.63
2022-12-17T20:09:03.711Z,101432.53
2022-12-17T20:11:32.996Z,101427.34
2022-12-17T20:14:13.545Z,101434.13
2022-12-17T20:16:43.230Z,101432.81
2022-12-17T20:19:15.342Z,101433.81
2022-12-17T20:21:42.072Z,101429.25
2022-12-17T20:24:10.108Z,101443.00
2022-12-17T20:26:37.004Z,101436.81
2022-12-17T20:29:05.425Z,101450.75
2022-12-17T20:31:32.883Z,101453.97
2022-12-17T20:34:07.422Z,101444.56
2022-12-17T20:36:34.981Z,101451.94
2022-12-17T20:39:01.645Z,101455.69
2022-12-17T20:41:30.666Z,101466.97
2022-12-17T20:43:57.581Z,101455.94
2022-12-17T20:46:25.267Z,101467.22
2022-12-17T20:48:52.178Z,101471.09
2022-12-17T20:51:22.405Z,101475.50
2022-12-17T20:53:52.075Z,101469.84
2022-12-17T20:56:22.032Z,101468.63
2022-12-17T20:58:55.858Z,101479.69
2022-12-17T21:01:24.765Z,101494.13
2022-12-17T21:03:52.935Z,101498.47
2022-12-17T21:06:22.985Z,101505.06
2022-12-17T21:08:51.741Z,101509.84
2022-12-17T21:11:21.336Z,101516.09
2022-12-17T21:13:48.082Z,101514.56
2022-12-17T21:16:17.434Z,101516.84
2022-12-17T21:18:44.593Z,101516.00
2022-12-17T21:21:14.619Z,101511.59
2022-12-17T21:23:41.198Z,101510.06
2022-12-17T21:26:12.194Z,101509.16
2022-12-17T21:28:41.631Z,101516.31
2022-12-17T21:31:17.761Z,101516.31
2022-12-17T21:33:45.703Z,101525.19
2022-12-17T21:36:12.585Z,101529.38
2022-12-17T21:38:39.697Z,101535.47
2022-12-17T21:41:10.442Z,101537.66
2022-12-17T21:43:37.874Z,101531.47
2022-12-17T21:46:05.444Z,101531.16
2022-12-17T21:48:38.033Z,101532.34
2022-12-17T21:51:10.631Z,101531.56
2022-12-17T21:53:41.998Z,101535.19
2022-12-17T21:56:11.973Z,101535.19
2022-12-17T21:58:39.708Z,101543.19
2022-12-17T22:01:09.508Z,101537.97
2022-12-17T22:03:44.986Z,101548.13
2022-12-17T22:06:18.795Z,101546.03
2022-12-17T22:08:47.059Z,101543.19
2022-12-17T22:11:20.705Z,101552.34
2022-12-17T22:14:09.122Z,101547.13
2022-12-17T22:16:46.955Z,101558.16
2022-12-17T22:19:16.535Z,101556.44
2022-12-17T22:21:45.170Z,101571.41
2022-12-17T22:24:20.189Z,101564.56
2022-12-17T22:26:47.654Z,101573.44
2022-12-17T22:29:37.565Z,101574.00
2022-12-17T22:32:24.436Z,101580.47
2022-12-17T22:36:05.957Z,101580.00
2022-12-17T22:41:25.369Z,101588.78
2022-12-17T22:43:46.248Z,101593.25
2022-12-17T22:44:37.552Z,101597.25
2022-12-17T22:46:16.828Z,101596.59
2022-12-17T22:48:43.472Z,101588.78
2022-12-17T22:51:11.767Z,101593.72
2022-12-17T22:53:42.175Z,101596.78
2022-12-17T22:56:18.854Z,101605.72
2022-12-17T22:58:56.576Z,101604.50
2022-12-17T23:01:23.600Z,101615.38
2022-12-17T23:03:53.886Z,101620.53
2022-12-17T23:06:21.039Z,101632.25
2022-12-17T23:08:48.045Z,101639.59
2022-12-17T23:11:17.943Z,101636.09
2022-12-17T23:13:45.327Z,101636.09
2022-12-17T23:16:13.835Z,101624.44
2022-12-17T23:18:41.787Z,101617.09
2022-12-17T23:21:14.120Z,101627.84
2022-12-17T23:23:41.452Z,101623.31
2022-12-17T23:26:14.488Z,101622.72
2022-12-17T23:28:42.211Z,101614.72
2022-12-17T23:31:17.792Z,101617.16
2022-12-17T23:33:45.405Z,101621.75
2022-12-17T23:36:14.537Z,101626.91
2022-12-17T23:38:41.728Z,101631.00
2022-12-17T23:41:14.286Z,101621.56
2022-12-17T23:43:41.088Z,101630.56
2022-12-17T23:46:09.529Z,101635.97
2022-12-17T23:48:42.070Z,101645.31
2022-12-17T23:51:13.363Z,101653.06
2022-12-17T23:53:40.347Z,101652.88
2022-12-17T23:56:12.517Z,101655.34
2022-12-17T23:58:40.244Z,101660.13
